createdAt,value
2019-02-06T00:00:48.569Z,53.63
2019-02-06T00:03:22.687Z,50.43
2019-02-06T00:05:52.622Z,51.77
2019-02-06T00:08:23.105Z,50.52
2019-02-06T00:10:52.784Z,50.15
2019-02-06T00:13:22.298Z,50.45
2019-02-06T00:15:52.142Z,49.20
2019-02-06T00:18:21.563Z,49.53
2019-02-06T00:20:53.147Z,52.58
2019-02-06T00:23:23.239Z,48.17
2019-02-06T00:25:52.886Z,55.50
2019-02-06T00:28:22.496Z,52.30
2019-02-06T00:30:52.521Z,51.70
2019-02-06T00:33:22.220Z,52.55
2019-02-06T00:35:51.826Z,48.48
2019-02-06T00:38:21.245Z,48.45
2019-02-06T00:40:51.132Z,49.05
2019-02-06T00:43:20.966Z,45.38
2019-02-06T00:45:50.361Z,47.48
2019-02-06T00:48:20.119Z,50.48
2019-02-06T00:50:49.777Z,49.38
2019-02-06T00:53:19.329Z,51.85
2019-02-06T00:55:48.699Z,56.30
2019-02-06T00:58:19.519Z,50.52
2019-02-06T01:00:49.004Z,54.03
2019-02-06T01:03:18.913Z,52.40
2019-02-06T01:05:48.372Z,48.28
2019-02-06T01:08:21.066Z,43.63
2019-02-06T01:10:50.875Z,48.85
2019-02-06T01:13:23.720Z,47.70
2019-02-06T01:15:53.303Z,47.17
2019-02-06T01:18:27.111Z,48.73
2019-02-06T01:20:56.846Z,45.88
2019-02-06T01:23:26.696Z,51.15
2019-02-06T01:25:56.073Z,52.50
2019-02-06T01:28:25.536Z,51.33
2019-02-06T01:31:01.925Z,48.87
2019-02-06T01:33:31.554Z,49.42
2019-02-06T01:36:01.126Z,51.00
2019-02-06T01:38:30.590Z,47.80
2019-02-06T01:41:00.824Z,48.00
2019-02-06T01:43:30.357Z,51.23
2019-02-06T01:45:59.945Z,50.75
2019-02-06T01:48:29.374Z,47.27
2019-02-06T01:50:58.793Z,51.18
2019-02-06T01:53:28.236Z,53.30
2019-02-06T01:55:57.814Z,52.98
2019-02-06T01:58:29.187Z,50.33
2019-02-06T02:00:59.220Z,62.65
2019-02-06T02:03:28.931Z,56.37
2019-02-06T02:06:02.317Z,62.95
2019-02-06T02:08:32.210Z,61.25
2019-02-06T02:11:02.059Z,57.60
2019-02-06T02:13:34.459Z,55.23
2019-02-06T02:16:04.412Z,55.70
2019-02-06T02:18:34.512Z,60.70
2019-02-06T02:21:04.234Z,58.38
2019-02-06T02:23:34.134Z,57.35
2019-02-06T02:26:03.571Z,57.88
2019-02-06T02:28:34.651Z,59.45
2019-02-06T02:31:10.170Z,61.50
2019-02-06T02:33:39.557Z,58.10
2019-02-06T02:36:16.116Z,62.20
2019-02-06T02:38:43.981Z,57.70
2019-02-06T02:41:13.721Z,52.03
2019-02-06T02:43:47.260Z,57.43
2019-02-06T02:46:16.716Z,54.70
2019-02-06T02:48:47.929Z,54.38
2019-02-06T02:51:27.011Z,54.30
2019-02-06T02:53:56.635Z,53.90
2019-02-06T02:56:31.239Z,56.23
2019-02-06T02:59:01.106Z,54.23
2019-02-06T03:02:01.462Z,60.30
2019-02-06T03:04:52.472Z,58.17
2019-02-06T03:07:29.502Z,56.58
2019-02-06T03:09:59.198Z,56.45
2019-02-06T03:12:28.878Z,57.45
2019-02-06T03:15:00.924Z,60.78
2019-02-06T03:17:32.836Z,60.63
2019-02-06T03:20:04.106Z,61.30
2019-02-06T03:22:33.822Z,61.65
2019-02-06T03:25:03.682Z,60.73
2019-02-06T03:27:33.547Z,60.88
2019-02-06T03:30:03.171Z,58.17
2019-02-06T03:32:35.815Z,60.28
2019-02-06T03:35:08.987Z,63.60
2019-02-06T03:37:40.305Z,63.35
2019-02-06T03:40:13.696Z,61.08
2019-02-06T03:42:43.458Z,64.92
2019-02-06T03:45:13.431Z,61.50
2019-02-06T03:47:43.167Z,62.50
2019-02-06T03:50:16.282Z,63.13
2019-02-06T03:52:51.741Z,64.95
2019-02-06T03:55:21.496Z,66.65
2019-02-06T03:57:51.094Z,61.05
2019-02-06T04:00:24.536Z,65.25
2019-02-06T04:02:55.215Z,60.23
2019-02-06T04:05:26.151Z,57.65
2019-02-06T04:07:55.905Z,59.93
2019-02-06T04:10:26.554Z,61.28
2019-02-06T04:12:56.794Z,56.98
2019-02-06T04:15:26.745Z,58.02
2019-02-06T04:17:58.735Z,58.70
2019-02-06T04:20:27.613Z,59.98
2019-02-06T04:23:02.077Z,61.45
2019-02-06T04:25:31.801Z,58.23
2019-02-06T04:28:04.282Z,60.85
2019-02-06T04:30:34.465Z,57.20
2019-02-06T04:33:12.935Z,58.58
2019-02-06T04:35:42.656Z,57.78
2019-02-06T04:38:27.576Z,56.90
2019-02-06T04:40:55.604Z,62.17
2019-02-06T04:43:26.382Z,58.38
2019-02-06T04:45:57.651Z,58.52
2019-02-06T04:48:32.171Z,57.90
2019-02-06T04:51:02.306Z,54.58
2019-02-06T04:53:39.281Z,58.85
2019-02-06T04:56:08.973Z,56.88
2019-02-06T04:58:38.599Z,54.63
2019-02-06T05:01:10.384Z,66.30
2019-02-06T05:03:42.203Z,58.23
2019-02-06T05:06:14.138Z,59.95
2019-02-06T05:08:46.719Z,54.90
2019-02-06T05:11:19.141Z,63.68
2019-02-06T05:13:48.759Z,59.10
2019-02-06T05:16:18.353Z,56.92
2019-02-06T05:18:47.760Z,53.10
2019-02-06T05:21:17.465Z,57.60
2019-02-06T05:23:47.180Z,55.28
2019-02-06T05:26:16.562Z,62.95
2019-02-06T05:28:46.279Z,59.03
2019-02-06T05:31:15.996Z,60.52
2019-02-06T05:33:45.484Z,60.15
2019-02-06T05:36:14.913Z,58.23
2019-02-06T05:38:44.525Z,57.65
2019-02-06T05:41:14.139Z,57.93
2019-02-06T05:43:43.699Z,57.70
2019-02-06T05:46:16.287Z,61.68
2019-02-06T05:48:49.211Z,60.30
2019-02-06T05:51:17.083Z,59.83
2019-02-06T05:53:47.174Z,59.50
2019-02-06T05:56:16.864Z,58.70
2019-02-06T05:58:46.328Z,60.85
2019-02-06T06:01:17.701Z,58.63
2019-02-06T06:03:47.438Z,55.75
2019-02-06T06:06:16.882Z,49.20
2019-02-06T06:08:46.263Z,52.73
2019-02-06T06:11:15.998Z,53.73
2019-02-06T06:13:45.408Z,58.73
2019-02-06T06:16:15.588Z,60.60
2019-02-06T06:18:45.139Z,52.30
2019-02-06T06:21:15.617Z,49.13
2019-02-06T06:23:47.311Z,56.50
2019-02-06T06:26:16.840Z,54.88
2019-02-06T06:28:46.312Z,53.58
2019-02-06T06:31:16.205Z,50.83
2019-02-06T06:33:46.105Z,54.42
2019-02-06T06:36:15.580Z,52.35
2019-02-06T06:38:45.146Z,51.05
2019-02-06T06:41:14.728Z,51.92
2019-02-06T06:43:44.158Z,55.33
2019-02-06T06:46:14.053Z,57.00
2019-02-06T06:48:43.966Z,62.43
2019-02-06T06:51:13.329Z,54.33
2019-02-06T06:53:42.934Z,62.45
2019-02-06T06:56:12.634Z,60.30
2019-02-06T06:58:42.654Z,55.10
2019-02-06T07:01:12.303Z,57.45
2019-02-06T07:03:41.983Z,53.58
2019-02-06T07:06:17.176Z,54.95
2019-02-06T07:08:46.759Z,63.48
2019-02-06T07:11:16.159Z,55.50
2019-02-06T07:13:45.777Z,58.35
2019-02-06T07:16:15.302Z,56.65
2019-02-06T07:18:44.654Z,62.55
2019-02-06T07:21:14.090Z,58.45
2019-02-06T07:23:43.805Z,64.90
2019-02-06T07:26:13.475Z,62.43
2019-02-06T07:28:43.342Z,61.70
2019-02-06T07:31:13.353Z,55.35
2019-02-06T07:33:42.822Z,59.73
2019-02-06T07:36:12.742Z,60.85
2019-02-06T07:38:42.396Z,54.88
2019-02-06T07:41:14.442Z,56.92
2019-02-06T07:43:45.272Z,56.95
2019-02-06T07:46:14.706Z,69.12
2019-02-06T07:48:44.361Z,63.08
2019-02-06T07:51:14.335Z,58.30
2019-02-06T07:53:43.944Z,53.87
2019-02-06T07:56:15.281Z,52.33
2019-02-06T07:58:45.340Z,52.90
2019-02-06T08:01:15.387Z,58.55
2019-02-06T08:03:44.962Z,49.25
2019-02-06T08:06:15.132Z,49.45
2019-02-06T08:08:44.550Z,65.35
2019-02-06T08:11:14.821Z,61.58
2019-02-06T08:13:44.596Z,49.75
2019-02-06T08:16:14.912Z,57.95
2019-02-06T08:18:44.619Z,55.23
2019-02-06T08:21:14.719Z,59.88
2019-02-06T08:23:44.444Z,63.00
2019-02-06T08:26:14.248Z,54.35
2019-02-06T08:28:46.522Z,55.65
2019-02-06T08:31:16.279Z,57.53
2019-02-06T08:33:45.933Z,60.12
2019-02-06T08:36:15.762Z,57.15
2019-02-06T08:38:48.721Z,52.85
2019-02-06T08:41:16.584Z,58.75
2019-02-06T08:43:47.761Z,67.03
2019-02-06T08:46:17.700Z,65.30
2019-02-06T08:48:47.293Z,64.10
2019-02-06T08:51:16.995Z,55.95
2019-02-06T08:53:46.914Z,60.90
2019-02-06T08:56:17.438Z,66.20
2019-02-06T08:58:47.458Z,68.50
2019-02-06T09:01:17.465Z,57.67
2019-02-06T09:03:47.101Z,59.88
2019-02-06T09:06:16.540Z,56.42
2019-02-06T09:08:58.949Z,52.93
2019-02-06T09:11:18.630Z,54.55
2019-02-06T09:13:48.157Z,56.50
2019-02-06T09:16:17.695Z,55.90
2019-02-06T09:18:47.225Z,59.38
2019-02-06T09:21:16.657Z,54.77
2019-02-06T09:23:46.137Z,50.12
2019-02-06T09:26:15.851Z,50.73
2019-02-06T09:28:45.404Z,56.70
2019-02-06T09:31:15.234Z,61.92
2019-02-06T09:33:44.663Z,61.45
2019-02-06T09:36:14.428Z,63.45
2019-02-06T09:38:43.880Z,57.13
2019-02-06T09:41:13.435Z,59.30
2019-02-06T09:43:44.988Z,54.00
2019-02-06T09:46:14.498Z,51.70
2019-02-06T09:48:43.997Z,58.42
2019-02-06T09:51:13.719Z,54.60
2019-02-06T09:53:43.173Z,54.95
2019-02-06T09:56:13.194Z,55.83
2019-02-06T09:58:43.231Z,53.98
2019-02-06T10:01:13.041Z,49.33
2019-02-06T10:03:42.755Z,47.35
2019-02-06T10:06:12.429Z,54.90
2019-02-06T10:08:41.866Z,61.73
2019-02-06T10:11:11.449Z,49.35
2019-02-06T10:13:40.812Z,60.12
2019-02-06T10:16:10.913Z,55.75
2019-02-06T10:18:40.428Z,62.40
2019-02-06T10:21:09.862Z,52.17
2019-02-06T10:23:39.783Z,61.75
2019-02-06T10:26:09.341Z,60.08
2019-02-06T10:28:38.985Z,54.70
2019-02-06T10:31:08.379Z,55.10
2019-02-06T10:33:39.763Z,62.30
2019-02-06T10:36:09.370Z,62.78
2019-02-06T10:38:38.983Z,56.65
2019-02-06T10:41:08.488Z,57.08
2019-02-06T10:43:38.358Z,56.45
2019-02-06T10:46:07.882Z,59.63
2019-02-06T10:48:37.648Z,57.53
2019-02-06T10:51:07.914Z,57.03
2019-02-06T10:53:37.575Z,60.23
2019-02-06T10:56:07.289Z,55.28
2019-02-06T10:58:37.417Z,67.58
2019-02-06T11:01:07.007Z,59.55
2019-02-06T11:03:36.960Z,55.92
2019-02-06T11:06:06.743Z,60.33
2019-02-06T11:08:37.271Z,62.95
2019-02-06T11:11:06.920Z,59.90
2019-02-06T11:13:36.832Z,58.00
2019-02-06T11:16:06.950Z,59.10
2019-02-06T11:18:36.968Z,62.88
2019-02-06T11:21:07.086Z,58.10
2019-02-06T11:23:37.382Z,58.48
2019-02-06T11:26:06.994Z,54.93
2019-02-06T11:28:36.489Z,61.30
2019-02-06T11:31:06.810Z,54.63
2019-02-06T11:33:36.659Z,55.65
2019-02-06T11:36:07.561Z,58.55
2019-02-06T11:38:37.646Z,52.65
2019-02-06T11:41:07.678Z,61.85
2019-02-06T11:43:37.342Z,59.35
2019-02-06T11:46:09.098Z,57.17
2019-02-06T11:48:39.217Z,51.73
2019-02-06T11:51:10.005Z,55.23
2019-02-06T11:53:39.943Z,58.10
2019-02-06T11:56:10.022Z,49.50
2019-02-06T11:58:39.818Z,53.65
2019-02-06T12:01:19.843Z,52.60
2019-02-06T12:03:49.718Z,53.25
2019-02-06T12:06:19.553Z,55.15
2019-02-06T12:08:49.731Z,51.77
2019-02-06T12:11:19.904Z,53.08
2019-02-06T12:13:49.528Z,48.45
2019-02-06T12:16:19.613Z,51.65
2019-02-06T12:18:49.382Z,60.48
2019-02-06T12:21:19.413Z,53.85
2019-02-06T12:23:49.668Z,57.45
2019-02-06T12:26:20.576Z,49.30
2019-02-06T12:28:50.448Z,52.00
2019-02-06T12:31:20.105Z,54.03
2019-02-06T12:33:50.526Z,52.80
2019-02-06T12:36:20.498Z,55.38
2019-02-06T12:38:53.557Z,56.30
2019-02-06T12:41:21.903Z,56.35
2019-02-06T12:43:51.844Z,55.10
2019-02-06T12:46:22.710Z,55.88
2019-02-06T12:48:52.607Z,54.27
2019-02-06T12:51:22.947Z,50.55
2019-02-06T12:53:52.735Z,56.73
2019-02-06T12:56:22.628Z,55.48
2019-02-06T12:58:54.007Z,51.18
2019-02-06T13:01:23.821Z,53.73
2019-02-06T13:03:54.100Z,61.85
2019-02-06T13:06:24.439Z,54.75
2019-02-06T13:08:54.755Z,55.15
2019-02-06T13:11:24.932Z,57.27
2019-02-06T13:13:54.437Z,60.92
2019-02-06T13:16:24.965Z,55.88
2019-02-06T13:18:56.393Z,56.68
2019-02-06T13:21:25.992Z,55.95
2019-02-06T13:23:55.991Z,54.13
2019-02-06T13:26:26.107Z,55.78
2019-02-06T13:28:56.426Z,51.65
2019-02-06T13:31:26.182Z,54.65
2019-02-06T13:33:56.005Z,58.87
2019-02-06T13:36:25.886Z,60.48
2019-02-06T13:38:55.759Z,59.70
2019-02-06T13:41:45.448Z,49.60
2019-02-06T13:44:15.466Z,56.88
2019-02-06T13:46:53.072Z,53.50
2019-02-06T13:49:17.292Z,59.53
2019-02-06T13:51:47.139Z,59.55
2019-02-06T13:54:16.657Z,55.52
2019-02-06T13:56:48.345Z,55.05
2019-02-06T13:59:18.537Z,51.30
2019-02-06T14:01:48.533Z,55.58
2019-02-06T14:04:18.384Z,51.83
2019-02-06T14:06:48.501Z,56.60
2019-02-06T14:09:22.757Z,57.10
2019-02-06T14:11:49.635Z,58.05
2019-02-06T14:14:19.387Z,51.80
2019-02-06T14:16:49.615Z,56.83
2019-02-06T14:19:19.563Z,54.33
2019-02-06T14:21:49.970Z,57.03
2019-02-06T14:24:44.315Z,50.28
2019-02-06T14:28:01.203Z,54.80
2019-02-06T14:30:47.040Z,54.88
2019-02-06T14:33:39.133Z,57.40
2019-02-06T14:36:44.224Z,62.80
2019-02-06T14:39:52.196Z,58.83
2019-02-06T14:43:11.405Z,58.13
2019-02-06T14:46:46.480Z,51.88
2019-02-06T14:49:59.990Z,58.28
2019-02-06T14:52:51.446Z,53.83
2019-02-06T14:55:35.957Z,51.10
2019-02-06T14:58:35.726Z,50.43
2019-02-06T15:01:44.625Z,51.75
2019-02-06T15:05:03.994Z,59.63
2019-02-06T15:08:11.304Z,55.48
2019-02-06T15:11:19.100Z,60.48
2019-02-06T15:14:18.238Z,55.45
2019-02-06T15:17:23.761Z,62.55
2019-02-06T15:20:31.347Z,53.70
2019-02-06T15:23:33.038Z,55.95
2019-02-06T15:26:33.033Z,53.33
2019-02-06T15:29:32.663Z,60.78
2019-02-06T15:32:32.287Z,55.83
2019-02-06T15:35:24.873Z,55.90
2019-02-06T15:38:53.837Z,65.47
2019-02-06T15:42:11.682Z,48.70
2019-02-06T15:45:43.540Z,55.70
2019-02-06T15:48:51.690Z,60.95
2019-02-06T15:52:05.190Z,62.43
2019-02-06T15:55:07.808Z,60.00
2019-02-06T15:58:00.486Z,58.92
2019-02-06T16:01:38.176Z,55.05
2019-02-06T16:04:50.980Z,55.70
2019-02-06T16:07:56.672Z,52.03
2019-02-06T16:11:02.437Z,52.75
2019-02-06T16:14:04.817Z,59.90
2019-02-06T16:17:15.660Z,59.98
2019-02-06T16:20:53.790Z,58.92
2019-02-06T16:23:51.604Z,50.95
2019-02-06T16:26:37.293Z,55.17
2019-02-06T16:29:33.854Z,57.00
2019-02-06T16:32:30.385Z,50.03
2019-02-06T16:35:27.252Z,55.63
2019-02-06T16:38:18.753Z,62.67
2019-02-06T16:41:32.894Z,53.98
2019-02-06T16:44:43.524Z,63.70
2019-02-06T16:47:59.365Z,65.62
2019-02-06T16:51:00.290Z,60.17
2019-02-06T16:54:14.127Z,63.68
2019-02-06T16:57:19.043Z,64.20
2019-02-06T17:00:24.077Z,60.03
2019-02-06T17:03:20.317Z,55.52
2019-02-06T17:06:14.928Z,54.73
2019-02-06T17:09:23.042Z,60.15
2019-02-06T17:12:29.353Z,57.07
2019-02-06T17:15:35.613Z,68.37
2019-02-06T17:18:52.379Z,55.65
2019-02-06T17:21:53.030Z,55.35
2019-02-06T17:24:50.323Z,53.25
2019-02-06T17:27:44.670Z,60.20
2019-02-06T17:30:35.175Z,56.53
2019-02-06T17:33:47.779Z,46.63
2019-02-06T17:36:41.656Z,54.73
2019-02-06T17:39:39.513Z,56.23
2019-02-06T17:42:42.722Z,53.05
2019-02-06T17:45:56.888Z,58.63
2019-02-06T17:48:59.007Z,60.10
2019-02-06T17:52:09.661Z,61.10
2019-02-06T17:55:01.734Z,59.38
2019-02-06T17:57:31.913Z,62.48
2019-02-06T18:00:02.152Z,55.80
2019-02-06T18:02:32.079Z,54.85
2019-02-06T18:05:02.734Z,55.15
2019-02-06T18:07:32.987Z,51.63
2019-02-06T18:10:04.839Z,57.70
2019-02-06T18:12:34.581Z,55.78
2019-02-06T18:15:04.685Z,54.42
2019-02-06T18:17:34.559Z,45.52
2019-02-06T18:20:05.560Z,57.08
2019-02-06T18:22:35.196Z,53.52
2019-02-06T18:25:06.323Z,54.13
2019-02-06T18:27:36.400Z,50.15
2019-02-06T18:30:11.358Z,56.28
2019-02-06T18:32:41.482Z,55.08
2019-02-06T18:35:12.259Z,59.40
2019-02-06T18:37:43.627Z,48.48
2019-02-06T18:40:14.162Z,56.37
2019-02-06T18:42:45.162Z,57.03
2019-02-06T18:45:16.419Z,57.80
2019-02-06T18:47:47.088Z,56.40
2019-02-06T18:50:20.198Z,56.15
2019-02-06T18:52:50.445Z,57.38
2019-02-06T18:55:21.332Z,50.23
2019-02-06T18:57:52.010Z,61.23
2019-02-06T19:00:25.792Z,61.13
2019-02-06T19:02:56.294Z,57.62
2019-02-06T19:05:32.225Z,55.23
2019-02-06T19:08:02.736Z,58.30
2019-02-06T19:10:33.233Z,53.63
2019-02-06T19:13:03.143Z,54.30
2019-02-06T19:15:33.279Z,54.45
2019-02-06T19:18:04.821Z,61.85
2019-02-06T19:20:35.768Z,55.35
2019-02-06T19:23:07.149Z,63.28
2019-02-06T19:25:37.062Z,59.95
2019-02-06T19:28:07.693Z,57.55
2019-02-06T19:30:39.833Z,59.40
2019-02-06T19:33:10.058Z,57.65
2019-02-06T19:35:39.795Z,54.13
2019-02-06T19:38:11.116Z,61.25
2019-02-06T19:40:40.715Z,53.78
2019-02-06T19:43:10.708Z,57.27
2019-02-06T19:45:41.161Z,55.20
2019-02-06T19:48:16.306Z,45.17
2019-02-06T19:50:43.217Z,50.23
2019-02-06T19:53:13.379Z,52.78
2019-02-06T19:55:44.708Z,49.38
2019-02-06T19:58:14.866Z,48.58
2019-02-06T20:00:44.844Z,50.95
2019-02-06T20:03:14.492Z,49.98
2019-02-06T20:05:44.577Z,44.65
2019-02-06T20:08:14.631Z,47.50
2019-02-06T20:10:46.037Z,55.70
2019-02-06T20:13:16.832Z,55.85
2019-02-06T20:15:46.746Z,50.30
2019-02-06T20:18:17.294Z,56.85
2019-02-06T20:20:47.177Z,46.30
2019-02-06T20:23:17.340Z,46.33
2019-02-06T20:25:47.825Z,53.15
2019-02-06T20:28:17.463Z,53.23
2019-02-06T20:30:47.308Z,59.33
2019-02-06T20:33:17.471Z,48.20
2019-02-06T20:35:48.699Z,47.03
2019-02-06T20:38:18.722Z,49.70
2019-02-06T20:40:48.282Z,55.83
2019-02-06T20:43:22.239Z,53.65
2019-02-06T20:45:49.802Z,50.12
2019-02-06T20:48:19.833Z,50.08
2019-02-06T20:50:51.507Z,52.62
2019-02-06T20:53:20.975Z,52.20
2019-02-06T20:55:50.570Z,51.45
2019-02-06T20:58:20.314Z,50.98
2019-02-06T21:00:50.121Z,50.45
2019-02-06T21:03:20.531Z,52.43
2019-02-06T21:05:50.184Z,47.55
2019-02-06T21:08:20.992Z,43.50
2019-02-06T21:10:50.713Z,44.93
2019-02-06T21:13:20.846Z,49.85
2019-02-06T21:15:50.780Z,44.35
2019-02-06T21:18:20.541Z,44.40
2019-02-06T21:20:52.799Z,46.20
2019-02-06T21:23:22.572Z,45.80
2019-02-06T21:25:52.697Z,48.35
2019-02-06T21:28:23.616Z,42.30
2019-02-06T21:30:54.072Z,46.88
2019-02-06T21:33:24.174Z,40.80
2019-02-06T21:35:55.212Z,42.25
2019-02-06T21:38:25.188Z,52.43
2019-02-06T21:40:55.117Z,46.08
2019-02-06T21:43:24.931Z,43.20
2019-02-06T21:45:55.097Z,41.35
2019-02-06T21:48:25.037Z,44.00
2019-02-06T21:50:55.017Z,40.80
2019-02-06T21:53:24.925Z,45.00
2019-02-06T21:55:54.467Z,45.40
2019-02-06T21:58:27.446Z,45.40
2019-02-06T22:00:57.453Z,49.50
2019-02-06T22:03:27.275Z,51.28
2019-02-06T22:05:57.392Z,40.80
2019-02-06T22:08:26.974Z,41.85
2019-02-06T22:10:56.527Z,40.48
2019-02-06T22:13:26.236Z,45.92
2019-02-06T22:15:56.512Z,41.73
2019-02-06T22:18:26.731Z,49.30
2019-02-06T22:20:56.424Z,42.35
2019-02-06T22:23:25.958Z,42.33
2019-02-06T22:25:55.836Z,49.08
2019-02-06T22:28:25.705Z,46.35
2019-02-06T22:30:55.663Z,47.75
2019-02-06T22:33:25.143Z,38.92
2019-02-06T22:35:54.920Z,43.80
2019-02-06T22:38:24.659Z,49.83
2019-02-06T22:40:54.379Z,43.17
2019-02-06T22:43:24.035Z,48.85
2019-02-06T22:45:54.072Z,42.88
2019-02-06T22:48:23.898Z,45.90
2019-02-06T22:50:53.473Z,42.60
2019-02-06T22:53:22.914Z,44.73
2019-02-06T22:55:53.249Z,45.38
2019-02-06T22:58:26.087Z,45.12
2019-02-06T23:01:25.974Z,36.93
2019-02-06T23:04:01.258Z,41.37
2019-02-06T23:06:30.789Z,47.65
2019-02-06T23:09:00.877Z,43.78
2019-02-06T23:11:30.519Z,42.35
2019-02-06T23:14:00.435Z,41.77
2019-02-06T23:16:29.920Z,46.33
2019-02-06T23:18:59.813Z,38.02
2019-02-06T23:21:29.768Z,46.77
2019-02-06T23:24:00.132Z,42.15
2019-02-06T23:26:29.880Z,39.88
2019-02-06T23:29:00.091Z,38.40
2019-02-06T23:31:29.641Z,43.90
2019-02-06T23:33:59.757Z,41.65
2019-02-06T23:36:29.269Z,40.92
2019-02-06T23:38:59.403Z,44.53
2019-02-06T23:41:29.458Z,39.10
2019-02-06T23:44:00.093Z,42.70
2019-02-06T23:46:30.258Z,41.25
2019-02-06T23:48:59.989Z,42.58
2019-02-06T23:51:31.104Z,45.60
2019-02-06T23:54:03.126Z,45.15
2019-02-06T23:56:34.238Z,49.83
2019-02-06T23:59:05.877Z,43.95
